Time;durP1;ratioP1;P1;durP2;ratioP2;P2;SDS_P1;SDS_P2;PMS_P1;PMS_P2;Temp;Humidity;BMP_temperature;BMP_pressure;BME280_temperature;BME280_humidity;BME280_pressure;Samples;Min_cycle;Max_cycle;Signal;HPM_P1;HPM_P2
2021/12/07 00:01:48;;;;;;;;;3.00;3.00;;;;;6.01;100.00;100415.63;5075788;27;46365;-61
2021/12/07 00:04:14;;;;;;;;;3.75;2.00;;;;;6.03;100.00;100423.41;5090441;27;45805;-62
2021/12/07 00:06:39;;;;;;;;;5.75;3.00;;;;;6.02;100.00;100432.16;5090888;27;45527;-62
2021/12/07 00:09:08;;;;;;;;;3.00;2.50;;;;;6.04;100.00;100448.63;5074070;27;45674;-60
2021/12/07 00:11:34;;;;;;;;;3.75;2.00;;;;;6.07;100.00;100443.34;5075038;27;46092;-61
2021/12/07 00:14:10;;;;;;;;;3.50;3.25;;;;;6.07;100.00;100432.91;5074656;27;45386;-60
2021/12/07 00:16:36;;;;;;;;;8.75;3.00;;;;;6.09;100.00;100441.56;5074701;27;45597;-61
2021/12/07 00:19:02;;;;;;;;;5.75;4.75;;;;;6.05;100.00;100426.84;5074039;27;45402;-61
2021/12/07 00:21:27;;;;;;;;;6.50;2.00;;;;;6.01;100.00;100423.47;5071884;28;46121;-62
2021/12/07 00:23:53;;;;;;;;;3.00;2.25;;;;;5.99;100.00;100427.84;5074771;27;45488;-62
2021/12/07 00:26:18;;;;;;;;;8.25;3.00;;;;;5.99;100.00;100420.00;5074139;27;45462;-60
2021/12/07 00:28:44;;;;;;;;;3.00;3.00;;;;;6.00;100.00;100434.78;5073844;27;45575;-61
2021/12/07 00:31:23;;;;;;;;;5.50;2.25;;;;;5.97;100.00;100424.41;5073579;27;45371;-61
2021/12/07 00:34:10;;;;;;;;;3.50;3.00;;;;;5.96;100.00;100430.53;5073662;27;45459;-60
2021/12/07 00:36:41;;;;;;;;;5.75;3.00;;;;;5.90;100.00;100434.13;5071780;28;45702;-62
2021/12/07 00:39:08;;;;;;;;;2.50;1.00;;;;;5.95;100.00;100434.03;5073450;27;45438;-62
2021/12/07 00:41:34;;;;;;;;;4.25;4.00;;;;;5.95;100.00;100442.72;5072549;28;46146;-61
2021/12/07 00:44:01;;;;;;;;;4.75;2.75;;;;;5.97;100.00;100440.91;5073653;27;45334;-60
2021/12/07 00:46:27;;;;;;;;;4.00;2.25;;;;;6.01;100.00;100456.53;5074456;27;45444;-60
2021/12/07 00:48:53;;;;;;;;;3.50;2.00;;;;;6.06;100.00;100454.69;5075044;27;45500;-61
2021/12/07 00:51:18;;;;;;;;;6.00;2.75;;;;;6.13;100.00;100445.81;5075904;28;46241;-62
2021/12/07 00:53:43;;;;;;;;;2.00;1.75;;;;;6.14;100.00;100444.91;5075138;27;45675;-59
2021/12/07 00:56:09;;;;;;;;;2.00;1.25;;;;;6.21;100.00;100443.03;5076097;27;45391;-63
2021/12/07 00:58:34;;;;;;;;;3.00;1.75;;;;;6.25;100.00;100437.66;5080885;27;45662;-62
2021/12/07 01:01:08;;;;;;;;;3.00;1.50;;;;;6.27;100.00;100446.31;5077413;28;46268;-62
2021/12/07 01:03:35;;;;;;;;;3.00;1.00;;;;;6.29;100.00;100447.16;5079261;27;45409;-60
2021/12/07 01:24:45;;;;;;;;;3.50;0.00;;;;;6.34;100.00;100448.78;5078210;27;45444;-62
2021/12/07 01:27:15;;;;;;;;;2.00;1.00;;;;;6.22;100.00;100437.75;5078754;27;45319;-61
2021/12/07 01:29:45;;;;;;;;;2.50;1.00;;;;;6.28;100.00;100436.75;5079050;27;45500;-61
2021/12/07 01:38:32;;;;;;;;;3.50;1.00;;;;;6.06;100.00;100439.00;5079280;27;45507;-62
2021/12/07 01:40:48;;;;;;;;;1.00;0.00;;;;;5.96;100.00;100439.19;5070067;28;45330;-59
2021/12/07 01:43:39;;;;;;;;;1.75;1.00;;;;;5.90;100.00;100452.41;5078798;28;46440;-60
2021/12/07 01:59:33;;;;;;;;;0.75;0.50;;;;;5.66;100.00;100452.06;5078249;28;45453;-62
2021/12/07 02:02:01;;;;;;;;;3.00;0.00;;;;;5.69;100.00;100464.16;5078318;27;45490;-60
2021/12/07 02:04:27;;;;;;;;;1.00;0.00;;;;;5.67;100.00;100460.72;5078019;27;46256;-59
2021/12/07 02:06:53;;;;;;;;;2.00;1.00;;;;;5.60;100.00;100452.19;5078510;27;45304;-60
2021/12/07 02:09:18;;;;;;;;;2.50;2.00;;;;;5.61;100.00;100466.97;5076615;27;45276;-60
2021/12/07 02:11:49;;;;;;;;;0.00;0.00;;;;;5.57;100.00;100465.31;5084182;28;45246;-60
2021/12/07 02:14:16;;;;;;;;;2.00;0.00;;;;;5.50;100.00;100461.13;5084028;27;46298;-59
2021/12/07 02:16:51;;;;;;;;;2.25;1.00;;;;;5.52;100.00;100467.16;5077881;27;45472;-59
2021/12/07 02:19:16;;;;;;;;;3.25;1.00;;;;;5.54;100.00;100463.59;5078058;28;45406;-59
2021/12/07 02:21:42;;;;;;;;;2.00;0.25;;;;;5.54;100.00;100454.94;5078235;27;45390;-59
2021/12/07 02:24:08;;;;;;;;;1.50;1.25;;;;;5.56;100.00;100466.19;5078050;27;46070;-62
2021/12/07 02:26:33;;;;;;;;;1.00;0.50;;;;;5.52;100.00;100468.00;5077894;27;45400;-60
2021/12/07 02:28:59;;;;;;;;;0.25;0.25;;;;;5.53;100.00;100471.47;5077865;27;45342;-61
2021/12/07 02:31:25;;;;;;;;;3.00;1.00;;;;;5.48;100.00;100474.16;5078172;27;45556;-59
2021/12/07 02:33:50;;;;;;;;;1.00;1.00;;;;;5.45;100.00;100470.78;5077391;27;45433;-61
2021/12/07 02:36:16;;;;;;;;;3.75;1.00;;;;;5.41;100.00;100465.63;5076129;27;45390;-60
2021/12/07 02:38:42;;;;;;;;;3.50;0.00;;;;;5.38;100.00;100470.03;5077777;27;45237;-60
2021/12/07 02:41:09;;;;;;;;;2.75;1.00;;;;;5.25;100.00;100452.03;5077907;27;45597;-59
2021/12/07 02:43:35;;;;;;;;;0.00;0.00;;;;;5.32;100.00;100486.69;5077354;27;45336;-59
2021/12/07 02:46:00;;;;;;;;;1.00;1.00;;;;;5.28;100.00;100471.97;5075884;28;45972;-61
2021/12/07 02:48:26;;;;;;;;;2.50;1.50;;;;;5.26;100.00;100473.75;5077084;27;46091;-60
2021/12/07 02:50:52;;;;;;;;;0.00;0.00;;;;;5.23;100.00;100476.41;5077850;28;45392;-60
2021/12/07 02:53:24;;;;;;;;;1.00;1.00;;;;;5.12;100.00;100471.41;5077175;27;46300;-62
2021/12/07 02:55:50;;;;;;;;;1.50;1.00;;;;;5.16;100.00;100480.03;5077225;27;45242;-60
2021/12/07 02:58:16;;;;;;;;;1.00;0.00;;;;;5.16;100.00;100477.41;5077624;27;45271;-62
2021/12/07 03:00:49;;;;;;;;;1.25;1.00;;;;;4.92;100.00;100449.19;5076769;27;45461;-58
2021/12/07 03:03:16;;;;;;;;;1.00;1.00;;;;;5.04;100.00;100465.50;5077314;28;45331;-58
2021/12/07 03:05:59;;;;;;;;;2.50;1.50;;;;;5.06;100.00;100476.75;5077475;27;45398;-59
2021/12/07 03:27:18;;;;;;;;;1.00;1.00;;;;;5.00;100.00;100495.13;5076550;28;45300;-60
2021/12/07 03:29:44;;;;;;;;;4.50;2.00;;;;;5.01;100.00;100495.06;5076782;28;45392;-60
2021/12/07 03:32:09;;;;;;;;;3.25;2.00;;;;;5.02;100.00;100502.00;5077526;27;45492;-60
2021/12/07 03:34:34;;;;;;;;;3.50;2.00;;;;;5.08;100.00;100509.72;5076614;27;46164;-60
2021/12/07 03:37:00;;;;;;;;;2.50;2.50;;;;;5.16;100.00;100503.50;5077650;27;45275;-59
2021/12/07 03:39:25;;;;;;;;;3.00;2.00;;;;;5.25;100.00;100508.53;5076849;27;45374;-60
2021/12/07 03:41:51;;;;;;;;;2.00;1.50;;;;;5.32;100.00;100514.50;5077227;27;45429;-61
2021/12/07 03:44:17;;;;;;;;;2.00;1.25;;;;;5.38;100.00;100504.81;5076775;27;45487;-61
2021/12/07 03:46:42;;;;;;;;;2.75;1.00;;;;;5.46;100.00;100501.19;5077140;27;45486;-59
2021/12/07 03:49:10;;;;;;;;;6.00;1.00;;;;;5.49;100.00;100491.53;5078191;27;45357;-61
2021/12/07 03:51:35;;;;;;;;;4.25;2.25;;;;;5.53;100.00;100494.97;5077869;27;45416;-61
2021/12/07 03:54:01;;;;;;;;;4.50;3.75;;;;;5.56;100.00;100500.97;5076605;27;45520;-61
2021/12/07 03:56:27;;;;;;;;;4.25;2.00;;;;;5.55;100.00;100501.84;5076774;27;45430;-60
2021/12/07 03:58:53;;;;;;;;;11.75;7.00;;;;;5.56;100.00;100505.34;5077498;27;45447;-62
2021/12/07 04:01:23;;;;;;;;;2.75;1.00;;;;;5.49;100.00;100483.72;5076791;27;45568;-61
2021/12/07 04:03:48;;;;;;;;;5.00;2.00;;;;;5.47;100.00;100471.63;5076968;27;45464;-60
2021/12/07 04:06:14;;;;;;;;;4.00;3.25;;;;;5.40;100.00;100489.13;5076933;27;45388;-60
2021/12/07 04:08:43;;;;;;;;;2.50;2.00;;;;;5.36;100.00;100488.34;5076778;28;45310;-60
2021/12/07 04:11:09;;;;;;;;;3.75;1.00;;;;;5.30;100.00;100475.44;5077043;27;45505;-59
2021/12/07 04:13:34;;;;;;;;;3.00;1.00;;;;;5.25;100.00;100474.63;5077476;27;45491;-60
2021/12/07 04:16:00;;;;;;;;;2.00;1.50;;;;;5.21;100.00;100491.22;5077578;27;45243;-61
2021/12/07 04:18:27;;;;;;;;;3.75;2.00;;;;;5.14;100.00;100492.22;5077767;27;45223;-62
2021/12/07 04:20:53;;;;;;;;;7.25;2.00;;;;;5.07;100.00;100494.13;5076983;27;45487;-60
2021/12/07 04:23:18;;;;;;;;;2.00;1.00;;;;;5.06;100.00;100498.47;5076390;27;45997;-59
2021/12/07 04:25:44;;;;;;;;;5.25;1.75;;;;;5.00;100.00;100493.34;5076897;27;45331;-60
2021/12/07 04:28:09;;;;;;;;;2.25;2.00;;;;;4.97;100.00;100485.59;5077115;27;45359;-61
2021/12/07 04:30:38;;;;;;;;;2.50;1.00;;;;;4.95;100.00;100487.38;5076657;27;45436;-60
2021/12/07 04:33:06;;;;;;;;;2.00;1.00;;;;;4.90;100.00;100494.41;5076946;27;45992;-61
2021/12/07 04:35:33;;;;;;;;;3.00;1.00;;;;;4.88;100.00;100493.59;5078736;27;45490;-61
2021/12/07 04:37:58;;;;;;;;;2.00;2.00;;;;;4.78;100.00;100482.47;5081849;27;45369;-61
2021/12/07 04:40:27;;;;;;;;;3.00;1.00;;;;;4.85;100.00;100485.81;5080626;27;45515;-62
2021/12/07 04:42:53;;;;;;;;;1.75;1.50;;;;;4.79;100.00;100487.66;5081754;27;45989;-63
2021/12/07 04:58:50;;;;;;;;;1.50;1.00;;;;;4.66;100.00;100486.16;5075638;28;45379;-60
2021/12/07 05:01:16;;;;;;;;;5.50;1.25;;;;;4.63;100.00;100494.00;5075696;28;45552;-60
2021/12/07 05:03:43;;;;;;;;;5.50;1.00;;;;;4.61;100.00;100491.41;5076082;27;46089;-59
2021/12/07 05:06:10;;;;;;;;;2.50;0.00;;;;;4.61;100.00;100486.22;5076050;27;45896;-62
2021/12/07 05:08:45;;;;;;;;;5.25;2.00;;;;;4.58;100.00;100485.41;5075174;27;45326;-62
2021/12/07 05:19:00;;;;;;;;;2.00;2.00;;;;;4.49;100.00;100479.47;5075101;28;45332;-60
2021/12/07 05:24:16;;;;;;;;;4.00;2.00;;;;;4.30;100.00;100457.22;5074744;28;45706;-60
2021/12/07 05:40:06;;;;;;;;;3.75;3.25;;;;;4.41;100.00;100496.09;5074784;28;45173;-61
2021/12/07 05:42:32;;;;;;;;;1.00;1.00;;;;;4.38;100.00;100494.44;5075982;27;45560;-62
2021/12/07 05:44:57;;;;;;;;;2.00;2.00;;;;;4.44;100.00;100498.66;5077896;27;46081;-61
2021/12/07 05:47:24;;;;;;;;;4.00;3.00;;;;;4.40;100.00;100492.66;5078460;27;45390;-61
2021/12/07 05:49:49;;;;;;;;;5.25;1.75;;;;;4.45;100.00;100487.34;5078963;27;45347;-62
2021/12/07 05:52:15;;;;;;;;;6.75;6.00;;;;;4.43;100.00;100487.41;5079263;27;45621;-62
2021/12/07 05:54:40;;;;;;;;;9.00;4.25;;;;;4.43;100.00;100492.59;5077905;27;45295;-61
2021/12/07 05:57:06;;;;;;;;;8.00;4.00;;;;;4.38;100.00;100490.06;5079272;27;45488;-61
2021/12/07 05:59:32;;;;;;;;;3.00;3.00;;;;;4.36;100.00;100501.41;5079408;27;45230;-61
2021/12/07 06:01:57;;;;;;;;;6.00;5.00;;;;;4.34;100.00;100506.63;5078465;27;45264;-61
2021/12/07 06:04:22;;;;;;;;;5.00;4.00;;;;;4.33;100.00;100506.66;5078114;27;46335;-61
2021/12/07 06:06:48;;;;;;;;;5.00;3.50;;;;;4.29;100.00;100502.38;5078611;27;45344;-62
2021/12/07 06:09:13;;;;;;;;;4.75;4.75;;;;;4.28;100.00;100505.88;5078189;27;45248;-61
2021/12/07 06:11:40;;;;;;;;;9.00;4.00;;;;;4.25;100.00;100504.16;5078259;27;45245;-62
2021/12/07 06:14:05;;;;;;;;;5.25;4.00;;;;;4.23;100.00;100506.78;5076588;27;46618;-62
2021/12/07 06:16:32;;;;;;;;;9.50;5.00;;;;;4.23;100.00;100492.91;5076458;27;45313;-62
2021/12/07 06:18:59;;;;;;;;;12.75;9.25;;;;;4.22;100.00;100492.03;5078320;27;45839;-63
2021/12/07 06:21:25;;;;;;;;;3.75;3.50;;;;;4.18;100.00;100472.13;5078291;27;45454;-61
2021/12/07 06:23:52;;;;;;;;;11.50;6.75;;;;;4.30;100.00;100476.31;5077109;27;48450;-60
2021/12/07 06:26:18;;;;;;;;;9.25;5.25;;;;;4.31;100.00;100461.56;5078324;27;45157;-62
2021/12/07 06:28:44;;;;;;;;;8.50;4.00;;;;;4.35;100.00;100453.66;5077966;28;45196;-61
2021/12/07 06:31:09;;;;;;;;;6.50;6.00;;;;;4.37;100.00;100454.47;5078364;27;45191;-61
2021/12/07 06:33:34;;;;;;;;;6.00;4.00;;;;;4.37;100.00;100451.03;5077742;27;45246;-61
2021/12/07 06:36:03;;;;;;;;;11.50;5.25;;;;;4.37;100.00;100457.09;5077805;27;45219;-60
2021/12/07 06:38:32;;;;;;;;;8.50;7.25;;;;;4.35;100.00;100448.44;5079890;27;45487;-61
2021/12/07 06:40:59;;;;;;;;;16.75;11.25;;;;;4.31;100.00;100436.34;5078114;28;45180;-63
2021/12/07 06:43:24;;;;;;;;;12.00;9.00;;;;;4.29;100.00;100435.53;5078919;27;45332;-62
2021/12/07 06:45:50;;;;;;;;;9.00;7.50;;;;;4.29;100.00;100437.28;5080684;27;45256;-65
2021/12/07 06:48:16;;;;;;;;;7.50;7.25;;;;;4.22;100.00;100439.97;5063661;28;45372;-62
2021/12/07 06:50:42;;;;;;;;;12.25;10.25;;;;;4.23;100.00;100449.50;5079288;27;45568;-62
2021/12/07 06:53:08;;;;;;;;;8.75;7.25;;;;;4.18;100.00;100435.69;5077741;27;45382;-61
2021/12/07 06:55:34;;;;;;;;;11.75;6.75;;;;;4.18;100.00;100437.44;5077773;28;45272;-61
2021/12/07 06:57:59;;;;;;;;;13.25;12.75;;;;;4.17;100.00;100426.16;5077502;27;45314;-61
2021/12/07 07:00:25;;;;;;;;;17.50;14.75;;;;;4.17;100.00;100420.09;5077255;27;45334;-62
2021/12/07 07:02:51;;;;;;;;;12.75;11.00;;;;;4.13;100.00;100419.28;5077138;27;45298;-62
2021/12/07 07:05:17;;;;;;;;;15.00;12.00;;;;;4.09;100.00;100415.00;5076576;27;45409;-61
2021/12/07 07:07:43;;;;;;;;;18.50;17.25;;;;;4.10;100.00;100414.13;5076602;27;45341;-62
2021/12/07 07:10:11;;;;;;;;;29.25;22.50;;;;;4.08;100.00;100405.47;5076486;27;45404;-62
2021/12/07 07:12:37;;;;;;;;;28.00;21.50;;;;;4.07;100.00;100408.97;5076512;28;46307;-62
2021/12/07 07:15:03;;;;;;;;;16.00;15.75;;;;;4.08;100.00;100405.47;5076584;27;45327;-62
2021/12/07 07:17:29;;;;;;;;;22.25;15.25;;;;;4.08;100.00;100395.06;5076942;27;45431;-62
2021/12/07 07:19:54;;;;;;;;;20.25;14.50;;;;;4.08;100.00;100403.75;5077629;27;45291;-62
2021/12/07 07:22:20;;;;;;;;;17.00;10.50;;;;;4.08;100.00;100397.66;5076281;27;46032;-61
2021/12/07 07:24:45;;;;;;;;;18.75;17.50;;;;;4.07;100.00;100382.94;5076207;27;45492;-62
2021/12/07 07:27:10;;;;;;;;;29.00;20.00;;;;;4.08;100.00;100387.25;5076598;27;45384;-63
2021/12/07 07:29:36;;;;;;;;;26.00;22.75;;;;;4.12;100.00;100385.47;5076478;27;45429;-63
2021/12/07 07:32:01;;;;;;;;;30.50;26.25;;;;;4.16;100.00;100380.19;5075425;27;45377;-64
2021/12/07 07:34:27;;;;;;;;;25.00;21.25;;;;;4.17;100.00;100363.66;5073539;28;45481;-63
2021/12/07 07:36:53;;;;;;;;;42.75;34.25;;;;;4.20;100.00;100355.81;5075318;27;45634;-63
2021/12/07 07:39:19;;;;;;;;;38.25;27.25;;;;;4.28;100.00;100362.66;5076177;27;45246;-63
2021/12/07 07:41:44;;;;;;;;;27.50;25.50;;;;;4.31;100.00;100352.19;5085477;27;46124;-63
2021/12/07 07:44:10;;;;;;;;;41.75;34.25;;;;;4.40;100.00;100352.03;5092583;27;45721;-61
2021/12/07 07:46:35;;;;;;;;;35.50;28.75;;;;;4.48;100.00;100346.66;5076213;28;45306;-62
2021/12/07 07:49:00;;;;;;;;;29.00;23.00;;;;;4.52;100.00;100337.88;5077063;27;45271;-66
2021/12/07 07:51:26;;;;;;;;;32.75;27.00;;;;;4.57;100.00;100330.84;5076888;27;46569;-65
2021/12/07 07:53:54;;;;;;;;;36.25;27.00;;;;;4.62;100.00;100323.78;5078002;27;45657;-62
2021/12/07 07:56:20;;;;;;;;;38.25;31.00;;;;;4.72;100.00;100327.09;5096003;27;45345;-62
2021/12/07 07:58:45;;;;;;;;;32.25;28.50;;;;;4.80;100.00;100332.16;5098131;27;45617;-64
2021/12/07 08:01:11;;;;;;;;;32.00;27.75;;;;;4.86;100.00;100331.16;5079763;27;46189;-64
2021/12/07 08:03:36;;;;;;;;;42.25;35.75;;;;;4.88;100.00;100318.97;5076657;28;45369;-62
2021/12/07 08:06:01;;;;;;;;;35.00;26.25;;;;;4.93;100.00;100327.53;5075908;27;45778;-62
2021/12/07 08:08:27;;;;;;;;;30.50;29.25;;;;;4.76;100.00;100283.56;5076958;28;45781;-64
2021/12/07 08:10:53;;;;;;;;;31.25;25.75;;;;;5.06;100.00;100320.31;5077046;27;47558;-62
2021/12/07 08:13:19;;;;;;;;;25.25;22.25;;;;;5.10;100.00;100308.94;5077492;27;45365;-61
2021/12/07 08:15:47;;;;;;;;;29.75;24.50;;;;;5.13;100.00;100306.25;5077097;27;45293;-61
2021/12/07 08:18:13;;;;;;;;;38.00;35.00;;;;;5.17;100.00;100305.31;5077130;27;45571;-62
2021/12/07 08:20:40;;;;;;;;;26.75;25.75;;;;;5.22;100.00;100303.44;5075788;27;47220;-62
2021/12/07 08:23:06;;;;;;;;;36.75;29.00;;;;;5.23;100.00;100296.47;5077534;27;45422;-61
2021/12/07 08:25:37;;;;;;;;;34.00;29.00;;;;;5.29;100.00;100288.50;5077547;27;45389;-62
2021/12/07 08:28:04;;;;;;;;;35.00;26.50;;;;;5.33;100.00;100284.97;5075502;28;45481;-61
2021/12/07 08:30:29;;;;;;;;;42.00;29.75;;;;;5.41;100.00;100283.03;5076840;27;45408;-61
2021/12/07 08:32:55;;;;;;;;;33.50;26.75;;;;;5.48;100.00;100281.13;5078310;27;45436;-62
2021/12/07 08:35:21;;;;;;;;;31.50;26.75;;;;;5.55;100.00;100272.25;5079010;27;45326;-63
2021/12/07 08:37:47;;;;;;;;;27.25;25.25;;;;;5.58;100.00;100276.53;5077642;27;45230;-64
2021/12/07 08:40:22;;;;;;;;;31.00;26.75;;;;;5.62;100.00;100282.53;5076900;27;46537;-61
2021/12/07 08:42:50;;;;;;;;;33.50;22.75;;;;;5.61;100.00;100267.75;5076977;27;45319;-64
2021/12/07 08:45:16;;;;;;;;;25.75;24.75;;;;;5.55;100.00;100248.75;5078294;27;45365;-62
2021/12/07 08:47:41;;;;;;;;;32.00;21.25;;;;;5.67;100.00;100270.22;5077123;27;45607;-62
2021/12/07 08:50:12;;;;;;;;;26.50;22.50;;;;;5.68;100.00;100272.81;5079656;27;46177;-63
2021/12/07 08:52:37;;;;;;;;;29.00;20.00;;;;;5.70;100.00;100270.16;5079158;27;45231;-60
2021/12/07 09:00:27;;;;;;;;;30.50;24.75;;;;;5.72;100.00;100254.47;5076073;28;45238;-61
2021/12/07 09:02:53;;;;;;;;;33.00;29.00;;;;;5.72;100.00;100241.41;5075706;27;45495;-60
2021/12/07 09:05:18;;;;;;;;;29.50;25.50;;;;;5.73;100.00;100236.16;5076055;28;45401;-61
2021/12/07 09:07:46;;;;;;;;;27.75;22.75;;;;;5.69;100.00;100224.94;5075855;27;45440;-61
2021/12/07 09:10:12;;;;;;;;;22.25;20.50;;;;;5.67;100.00;100207.59;5078839;27;46222;-61
2021/12/07 09:12:37;;;;;;;;;22.00;18.50;;;;;5.68;100.00;100197.13;5077123;27;45267;-61
2021/12/07 09:15:04;;;;;;;;;23.50;19.75;;;;;5.68;100.00;100186.69;5076278;27;45299;-61
2021/12/07 09:17:29;;;;;;;;;23.75;19.75;;;;;5.64;100.00;100192.03;5078462;27;45536;-61
2021/12/07 09:19:55;;;;;;;;;20.50;17.75;;;;;5.58;100.00;100172.19;5081614;27;46590;-62
2021/12/07 09:22:20;;;;;;;;;28.00;24.25;;;;;5.64;100.00;100186.78;5081291;27;45428;-63
2021/12/07 09:24:46;;;;;;;;;27.50;21.75;;;;;5.67;100.00;100182.38;5082389;27;45456;-63
2021/12/07 09:27:11;;;;;;;;;27.50;21.50;;;;;5.66;100.00;100157.16;5081952;27;45578;-62
2021/12/07 09:29:37;;;;;;;;;27.25;25.00;;;;;5.71;100.00;100146.59;5082784;27;46070;-62
2021/12/07 09:32:04;;;;;;;;;19.75;18.00;;;;;5.77;100.00;100161.25;5082752;27;45252;-62
2021/12/07 09:34:30;;;;;;;;;18.00;13.75;;;;;5.74;100.00;100161.31;5085003;27;45336;-61
2021/12/07 09:36:55;;;;;;;;;24.75;22.00;;;;;5.70;100.00;100170.97;5079910;27;45495;-62
2021/12/07 09:39:21;;;;;;;;;27.75;21.00;;;;;5.66;100.00;100156.31;5079150;27;46297;-61
2021/12/07 09:41:47;;;;;;;;;25.00;19.00;;;;;5.63;100.00;100152.03;5079020;27;45390;-62
2021/12/07 09:44:12;;;;;;;;;21.50;18.50;;;;;5.60;100.00;100178.22;5077399;27;45400;-62
2021/12/07 09:46:39;;;;;;;;;18.75;15.75;;;;;5.60;100.00;100175.59;5078196;27;45688;-62
2021/12/07 09:49:05;;;;;;;;;22.50;21.00;;;;;5.53;100.00;100166.22;5078201;27;46168;-65
2021/12/07 09:51:32;;;;;;;;;24.50;17.50;;;;;5.59;100.00;100175.63;5078677;27;45261;-62
2021/12/07 09:53:58;;;;;;;;;29.50;23.50;;;;;5.56;100.00;100168.75;5078880;27;45295;-60
2021/12/07 09:56:25;;;;;;;;;18.75;17.75;;;;;5.55;100.00;100159.22;5078161;27;45303;-63
2021/12/07 09:58:53;;;;;;;;;20.50;16.50;;;;;5.54;100.00;100144.44;5079784;27;45357;-62
2021/12/07 10:01:21;;;;;;;;;21.75;18.00;;;;;5.59;100.00;100144.31;5076827;27;45201;-62
2021/12/07 10:03:47;;;;;;;;;22.75;17.50;;;;;5.63;100.00;100152.03;5078749;27;45231;-61
2021/12/07 10:06:13;;;;;;;;;19.75;18.75;;;;;5.68;100.00;100152.78;5078841;28;45362;-63
2021/12/07 10:08:39;;;;;;;;;23.25;15.50;;;;;5.74;100.00;100153.50;5078929;27;45476;-63
2021/12/07 10:11:07;;;;;;;;;17.25;15.00;;;;;5.73;100.00;100152.63;5078289;27;45385;-62
2021/12/07 10:13:34;;;;;;;;;20.50;18.75;;;;;5.77;100.00;100146.44;5080081;27;45303;-62
2021/12/07 10:16:04;;;;;;;;;22.50;19.25;;;;;5.82;100.00;100143.69;5080233;27;45639;-62
2021/12/07 10:18:33;;;;;;;;;18.00;16.50;;;;;5.85;100.00;100138.41;5081096;27;47619;-61
2021/12/07 10:21:01;;;;;;;;;20.50;16.75;;;;;5.89;100.00;100118.31;5080205;28;45236;-62
2021/12/07 10:23:36;;;;;;;;;18.75;17.25;;;;;5.92;100.00;100110.38;5078384;27;45186;-61
2021/12/07 10:26:11;;;;;;;;;20.25;14.75;;;;;5.91;100.00;100095.63;5078437;28;45278;-61
2021/12/07 10:28:42;;;;;;;;;21.75;19.25;;;;;6.01;100.00;100091.88;5076483;28;45393;-64
2021/12/07 10:31:10;;;;;;;;;17.50;17.00;;;;;6.06;100.00;100078.66;5077809;27;45243;-62
2021/12/07 10:34:03;;;;;;;;;17.75;15.00;;;;;6.13;100.00;100059.31;5077877;28;45310;-64
2021/12/07 10:36:43;;;;;;;;;14.75;14.00;;;;;6.18;100.00;100059.19;5072895;28;45263;-64
2021/12/07 10:39:11;;;;;;;;;17.25;16.25;;;;;6.18;100.00;100064.41;5076811;27;46485;-61
2021/12/07 10:41:41;;;;;;;;;35.75;31.00;;;;;6.23;100.00;100050.28;5076912;27;45232;-63
2021/12/07 10:44:15;;;;;;;;;29.25;23.00;;;;;6.31;100.00;100031.78;5077484;27;45421;-63
2021/12/07 10:46:59;;;;;;;;;21.75;19.00;;;;;6.39;100.00;100019.31;5078068;27;45339;-62
2021/12/07 10:49:26;;;;;;;;;23.50;16.75;;;;;6.47;100.00;100008.66;5078019;27;47101;-62
2021/12/07 10:52:00;;;;;;;;;21.25;16.00;;;;;6.56;100.00;100007.47;5078048;27;45370;-63
2021/12/07 10:54:28;;;;;;;;;17.25;15.50;;;;;6.60;100.00;99989.94;5077797;27;45229;-64
2021/12/07 10:56:55;;;;;;;;;17.75;16.50;;;;;6.65;100.00;99982.81;5078127;27;45305;-63
2021/12/07 10:59:20;;;;;;;;;22.00;18.50;;;;;6.65;100.00;99978.41;5077590;27;45759;-62
2021/12/07 11:01:49;;;;;;;;;25.75;20.50;;;;;6.66;100.00;99955.75;5077546;27;45423;-62
2021/12/07 11:04:23;;;;;;;;;22.00;17.75;;;;;6.75;100.00;99955.44;5077381;27;45279;-63
2021/12/07 11:07:16;;;;;;;;;27.00;19.75;;;;;6.81;100.00;99947.38;5078093;27;45169;-62
2021/12/07 11:09:49;;;;;;;;;21.25;20.50;;;;;6.92;100.00;99935.69;5076705;27;46878;-62
2021/12/07 11:12:19;;;;;;;;;26.75;20.50;;;;;7.04;100.00;99929.19;5076689;28;44962;-62
2021/12/07 11:14:56;;;;;;;;;20.50;16.25;;;;;7.14;100.00;99915.72;5081005;27;45349;-61
2021/12/07 11:17:33;;;;;;;;;27.00;19.00;;;;;7.21;100.00;99891.94;5079283;28;45184;-64
2021/12/07 11:20:00;;;;;;;;;19.75;17.75;;;;;7.29;100.00;99889.88;5078393;27;45606;-62
2021/12/07 11:22:35;;;;;;;;;19.75;15.75;;;;;7.37;100.00;99866.91;5079565;27;45306;-64
2021/12/07 11:25:03;;;;;;;;;11.75;11.25;;;;;7.41;100.00;99868.47;5079728;27;45173;-63
2021/12/07 11:30:20;;;;;;;;;12.50;12.50;;;;;7.49;100.00;99836.81;5079201;27;45257;-63
2021/12/07 11:32:55;;;;;;;;;16.00;10.00;;;;;7.52;100.00;99830.59;5079286;27;45487;-62
2021/12/07 11:35:27;;;;;;;;;11.50;10.25;;;;;7.58;100.00;99832.97;5079738;27;45336;-63
2021/12/07 11:37:58;;;;;;;;;13.00;10.50;;;;;7.59;100.00;99818.97;5079574;27;45533;-63
2021/12/07 11:40:37;;;;;;;;;33.00;25.75;;;;;7.62;100.00;99802.28;5077668;27;47055;-64
2021/12/07 11:43:15;;;;;;;;;14.00;10.50;;;;;7.68;100.00;99792.44;5077975;27;45437;-62
2021/12/07 11:45:43;;;;;;;;;11.50;8.00;;;;;7.71;100.00;99779.22;5076116;27;45420;-61
2021/12/07 11:48:08;;;;;;;;;15.50;12.50;;;;;7.70;100.00;99779.25;5076052;27;45322;-61
2021/12/07 11:50:44;;;;;;;;;11.00;10.00;;;;;7.77;100.00;99785.94;5075857;27;46108;-62
2021/12/07 11:53:15;;;;;;;;;12.00;9.50;;;;;7.77;100.00;99777.25;5076083;27;45358;-60
2021/12/07 11:55:43;;;;;;;;;8.75;8.00;;;;;7.80;100.00;99771.91;5076319;27;45542;-62
2021/12/07 11:58:10;;;;;;;;;9.75;8.00;;;;;7.77;99.75;99756.31;5076916;27;45542;-62
2021/12/07 12:00:45;;;;;;;;;15.25;12.00;;;;;7.74;100.00;99736.34;5077049;28;45413;-61
2021/12/07 12:03:14;;;;;;;;;13.50;12.00;;;;;7.79;100.00;99737.00;5077553;27;45276;-60
2021/12/07 12:05:42;;;;;;;;;19.75;15.25;;;;;7.83;100.00;99727.25;5093316;27;45315;-63
2021/12/07 12:08:09;;;;;;;;;11.50;9.00;;;;;7.79;100.00;99715.22;5077564;27;45176;-61
2021/12/07 12:10:41;;;;;;;;;13.25;12.00;;;;;7.84;100.00;99710.63;5077254;27;46545;-62
2021/12/07 12:13:40;;;;;;;;;9.00;8.00;;;;;7.83;99.14;99704.53;5075751;27;45280;-62
2021/12/07 12:16:42;;;;;;;;;10.00;9.50;;;;;7.86;100.00;99686.06;5076077;27;45290;-63
2021/12/07 12:19:22;;;;;;;;;20.50;13.00;;;;;7.93;100.00;99697.13;5074864;28;45314;-63
2021/12/07 12:21:55;;;;;;;;;17.00;10.00;;;;;7.93;98.72;99672.72;5077186;27;46340;-62
2021/12/07 12:24:32;;;;;;;;;12.75;10.00;;;;;7.91;98.39;99664.94;5077059;27;45204;-62
2021/12/07 12:27:33;;;;;;;;;18.00;13.75;;;;;7.96;100.00;99654.28;5074457;27;45468;-64
2021/12/07 12:30:04;;;;;;;;;14.75;9.50;;;;;7.96;100.00;99656.88;5078047;27;45169;-63
2021/12/07 12:32:41;;;;;;;;;12.00;10.00;;;;;7.97;99.81;99646.31;5081090;27;45432;-62
2021/12/07 12:35:08;;;;;;;;;11.25;8.50;;;;;7.94;98.49;99633.38;5080165;28;45331;-64
2021/12/07 12:37:34;;;;;;;;;8.00;8.00;;;;;7.89;99.03;99617.00;5078468;27;45222;-61
2021/12/07 12:40:17;;;;;;;;;14.50;9.50;;;;;7.86;99.74;99602.28;5081228;27;45628;-62
2021/12/07 12:42:44;;;;;;;;;9.75;9.75;;;;;7.90;99.34;99595.97;5078953;27;46873;-62
2021/12/07 12:45:28;;;;;;;;;9.50;5.50;;;;;7.90;100.00;99582.06;5077411;27;45367;-62
2021/12/07 12:48:10;;;;;;;;;11.25;8.75;;;;;7.91;99.66;99562.81;5077761;27;45410;-62
2021/12/07 12:50:50;;;;;;;;;10.00;7.00;;;;;7.92;99.40;99564.50;5078590;27;45386;-62
2021/12/07 12:53:25;;;;;;;;;9.75;7.25;;;;;7.89;99.51;99544.53;5079612;27;46195;-62
2021/12/07 12:56:07;;;;;;;;;11.25;6.75;;;;;7.87;99.50;99525.44;5079794;27;45197;-62
2021/12/07 12:58:34;;;;;;;;;9.25;7.25;;;;;7.88;99.93;99521.88;5079025;27;45203;-62
2021/12/07 13:01:25;;;;;;;;;6.75;6.75;;;;;7.93;99.99;99518.22;5079266;27;45632;-61
2021/12/07 13:04:04;;;;;;;;;9.25;8.75;;;;;7.95;100.00;99496.28;5079105;27;46042;-63
2021/12/07 13:06:33;;;;;;;;;9.00;7.25;;;;;7.96;99.16;99494.53;5078920;27;45334;-62
2021/12/07 13:09:27;;;;;;;;;8.50;7.00;;;;;7.97;98.95;99509.31;5078235;27;45452;-62